createdAt,value
2018-06-11T00:01:39.941Z,21.04
2018-06-11T00:04:07.954Z,21.20
2018-06-11T00:06:35.967Z,21.25
2018-06-11T00:09:06.940Z,21.17
2018-06-11T00:11:35.158Z,20.94
2018-06-11T00:14:03.225Z,20.64
2018-06-11T00:16:31.220Z,20.46
2018-06-11T00:18:59.313Z,20.59
2018-06-11T00:21:27.985Z,20.45
2018-06-11T00:23:56.232Z,20.27
2018-06-11T00:26:24.764Z,20.61
2018-06-11T00:28:53.072Z,20.56
2018-06-11T00:31:21.639Z,20.69
2018-06-11T00:33:50.898Z,20.49
2018-06-11T00:36:19.372Z,20.60
2018-06-11T00:38:47.769Z,20.61
2018-06-11T00:41:16.319Z,20.61
2018-06-11T00:43:44.598Z,20.45
2018-06-11T00:46:12.985Z,20.58
2018-06-11T00:48:41.460Z,20.67
2018-06-11T00:51:09.933Z,20.47
2018-06-11T00:53:38.465Z,20.31
2018-06-11T00:56:07.953Z,20.24
2018-06-11T00:58:36.418Z,20.26
2018-06-11T01:01:04.885Z,20.37
2018-06-11T01:03:33.374Z,20.51
2018-06-11T01:06:01.610Z,20.06
2018-06-11T01:08:29.595Z,19.80
2018-06-11T01:10:57.535Z,19.94
2018-06-11T01:13:26.882Z,19.80
2018-06-11T01:15:55.160Z,19.66
2018-06-11T01:18:23.707Z,19.95
2018-06-11T01:20:52.138Z,20.02
2018-06-11T01:23:20.722Z,20.11
2018-06-11T01:25:49.025Z,20.00
2018-06-11T01:28:17.453Z,19.97
2018-06-11T01:30:45.759Z,19.67
2018-06-11T01:33:14.369Z,19.77
2018-06-11T01:35:42.909Z,19.89
2018-06-11T01:38:11.239Z,19.85
2018-06-11T01:40:39.615Z,19.71
2018-06-11T01:43:07.950Z,20.00
2018-06-11T01:45:36.558Z,20.28
2018-06-11T01:48:05.048Z,20.00
2018-06-11T01:50:33.533Z,19.85
2018-06-11T01:53:02.029Z,19.79
2018-06-11T01:55:30.464Z,19.52
2018-06-11T01:57:58.617Z,19.76
2018-06-11T02:00:27.265Z,19.79
2018-06-11T02:02:55.928Z,19.64
2018-06-11T02:05:24.390Z,19.58
2018-06-11T02:07:52.329Z,19.55
2018-06-11T02:10:20.891Z,19.73
2018-06-11T02:12:48.834Z,19.69
2018-06-11T02:15:18.342Z,19.49
2018-06-11T02:17:46.585Z,19.35
2018-06-11T02:20:15.071Z,19.52
2018-06-11T02:22:43.550Z,19.52
2018-06-11T02:25:12.010Z,19.60
2018-06-11T02:27:40.436Z,19.45
2018-06-11T02:30:09.098Z,19.16
2018-06-11T02:32:37.454Z,19.13
2018-06-11T02:35:05.850Z,19.29
2018-06-11T02:37:33.914Z,19.34
2018-06-11T02:40:02.200Z,19.22
2018-06-11T02:42:30.633Z,19.23
2018-06-11T02:44:58.987Z,18.84
2018-06-11T02:47:27.370Z,18.89
2018-06-11T02:49:55.965Z,19.32
2018-06-11T02:52:24.314Z,19.36
2018-06-11T02:54:52.749Z,19.34
2018-06-11T02:57:21.223Z,19.19
2018-06-11T02:59:49.646Z,19.02
2018-06-11T03:02:18.137Z,19.03
2018-06-11T03:04:46.893Z,19.07
2018-06-11T03:07:15.218Z,19.25
2018-06-11T03:09:43.756Z,18.95
2018-06-11T03:12:13.133Z,18.97
2018-06-11T03:14:41.457Z,18.84
2018-06-11T03:17:09.965Z,18.81
2018-06-11T03:19:38.470Z,18.80
2018-06-11T03:22:06.989Z,19.01
2018-06-11T03:24:35.322Z,18.99
2018-06-11T03:27:03.774Z,18.98
2018-06-11T03:29:32.596Z,18.81
2018-06-11T03:32:01.130Z,18.76
2018-06-11T03:34:30.501Z,18.68
2018-06-11T03:36:58.974Z,18.73
2018-06-11T03:39:27.494Z,18.74
2018-06-11T03:41:55.815Z,18.68
2018-06-11T03:44:24.309Z,18.60
2018-06-11T03:46:52.230Z,18.62
2018-06-11T03:49:20.622Z,18.66
2018-06-11T03:51:50.037Z,18.79
2018-06-11T03:54:18.504Z,18.97
2018-06-11T03:56:46.973Z,18.98
2018-06-11T03:59:15.480Z,18.88
2018-06-11T04:01:43.937Z,19.01
2018-06-11T04:04:12.261Z,19.09
2018-06-11T04:06:40.742Z,18.95
2018-06-11T04:09:08.873Z,18.88
2018-06-11T04:11:37.543Z,18.93
2018-06-11T04:14:06.045Z,19.27
2018-06-11T04:16:34.081Z,19.41
2018-06-11T04:19:02.541Z,19.36
2018-06-11T04:21:30.878Z,19.50
2018-06-11T04:23:59.453Z,19.55
2018-06-11T04:26:27.867Z,19.41
2018-06-11T04:28:56.213Z,19.61
2018-06-11T04:31:24.520Z,19.68
2018-06-11T04:33:52.902Z,19.84
2018-06-11T04:36:21.300Z,19.97
2018-06-11T04:38:49.525Z,20.12
2018-06-11T04:41:18.195Z,20.17
2018-06-11T04:43:46.770Z,20.17
2018-06-11T04:46:15.270Z,20.40
2018-06-11T04:48:43.834Z,20.58
2018-06-11T04:51:12.567Z,20.75
2018-06-11T04:53:41.255Z,20.82
2018-06-11T04:56:09.745Z,20.93
2018-06-11T04:58:38.310Z,20.97
2018-06-11T05:01:06.922Z,21.04
2018-06-11T05:03:36.030Z,21.18
2018-06-11T05:06:04.370Z,21.14
2018-06-11T05:08:32.850Z,21.23
2018-06-11T05:11:00.854Z,21.25
2018-06-11T05:13:29.325Z,21.45
2018-06-11T05:15:58.383Z,21.47
2018-06-11T05:18:26.661Z,21.58
2018-06-11T05:20:55.282Z,21.72
2018-06-11T05:23:23.733Z,21.86
2018-06-11T05:25:51.673Z,21.94
2018-06-11T05:28:20.131Z,22.04
2018-06-11T05:30:48.605Z,22.03
2018-06-11T05:33:17.166Z,22.11
2018-06-11T05:35:45.802Z,22.08
2018-06-11T05:38:14.344Z,22.21
2018-06-11T05:40:43.079Z,22.34
2018-06-11T05:43:11.286Z,22.47
2018-06-11T05:45:39.606Z,22.56
2018-06-11T05:48:08.055Z,22.71
2018-06-11T05:50:36.485Z,22.73
2018-06-11T05:53:05.009Z,22.80
2018-06-11T05:55:33.601Z,22.85
2018-06-11T05:58:02.166Z,22.81
2018-06-11T06:00:30.654Z,22.93
2018-06-11T06:02:59.178Z,22.92
2018-06-11T06:05:27.400Z,23.11
2018-06-11T06:07:55.918Z,23.25
2018-06-11T06:10:24.426Z,23.31
2018-06-11T06:12:52.945Z,23.22
2018-06-11T06:15:21.233Z,23.21
2018-06-11T06:17:52.781Z,23.38
2018-06-11T06:20:21.265Z,23.41
2018-06-11T06:22:49.842Z,23.53
2018-06-11T06:25:18.386Z,23.53
2018-06-11T06:27:46.934Z,23.66
2018-06-11T06:30:15.495Z,23.93
2018-06-11T06:32:43.979Z,23.99
2018-06-11T06:35:13.032Z,23.84
2018-06-11T06:37:41.082Z,23.77
2018-06-11T06:40:09.079Z,23.95
2018-06-11T06:42:37.490Z,24.08
2018-06-11T06:45:05.888Z,24.04
2018-06-11T06:47:34.466Z,24.05
2018-06-11T06:50:03.050Z,24.19
2018-06-11T06:52:31.427Z,24.31
2018-06-11T06:54:59.931Z,24.36
2018-06-11T06:57:28.291Z,24.21
2018-06-11T06:59:59.327Z,24.26
2018-06-11T07:02:27.953Z,24.38
2018-06-11T07:04:57.121Z,24.55
2018-06-11T07:07:26.216Z,24.49
2018-06-11T07:09:54.302Z,24.69
2018-06-11T07:12:22.726Z,25.05
2018-06-11T07:14:50.768Z,25.10
2018-06-11T07:17:19.263Z,24.95
2018-06-11T07:19:47.681Z,24.92
2018-06-11T07:22:16.058Z,25.01
2018-06-11T07:24:44.632Z,25.10
2018-06-11T07:27:13.094Z,25.14
2018-06-11T07:29:41.622Z,25.33
2018-06-11T07:32:09.583Z,25.27
2018-06-11T07:34:38.208Z,25.17
2018-06-11T07:37:06.190Z,25.32
2018-06-11T07:39:34.660Z,25.42
2018-06-11T07:42:03.232Z,25.41
2018-06-11T07:44:31.554Z,25.61
2018-06-11T07:47:00.231Z,25.58
2018-06-11T07:49:28.853Z,25.72
2018-06-11T07:51:57.571Z,25.99
2018-06-11T07:54:25.969Z,25.96
2018-06-11T07:56:54.401Z,25.87
2018-06-11T07:59:22.991Z,25.81
2018-06-11T08:01:51.545Z,25.78
2018-06-11T08:04:20.298Z,25.88
2018-06-11T08:06:48.856Z,26.14
2018-06-11T08:09:17.351Z,26.29
2018-06-11T08:11:45.924Z,26.23
2018-06-11T08:14:14.510Z,26.48
2018-06-11T08:16:43.072Z,26.41
2018-06-11T08:19:11.472Z,26.44
2018-06-11T08:21:39.932Z,26.30
2018-06-11T08:24:08.443Z,26.36
2018-06-11T08:26:37.102Z,26.65
2018-06-11T08:29:08.611Z,26.49
2018-06-11T08:31:37.534Z,26.56
2018-06-11T08:34:06.190Z,26.57
2018-06-11T08:36:34.646Z,26.61
2018-06-11T08:39:03.570Z,26.69
2018-06-11T08:41:32.208Z,26.89
2018-06-11T08:44:00.637Z,26.99
2018-06-11T08:46:29.246Z,26.79
2018-06-11T08:48:57.738Z,26.92
2018-06-11T08:51:26.130Z,26.85
2018-06-11T08:53:54.612Z,26.88
2018-06-11T08:56:22.977Z,27.13
2018-06-11T08:58:51.597Z,27.23
2018-06-11T09:01:21.284Z,27.20
2018-06-11T09:03:49.857Z,27.27
2018-06-11T09:06:18.349Z,27.35
2018-06-11T09:08:46.788Z,27.32
2018-06-11T09:11:15.290Z,27.35
2018-06-11T09:13:43.695Z,27.23
2018-06-11T09:16:12.107Z,27.40
2018-06-11T09:18:40.437Z,27.43
2018-06-11T09:21:09.015Z,27.39
2018-06-11T09:23:37.420Z,27.34
2018-06-11T09:26:05.797Z,27.45
2018-06-11T09:28:34.177Z,27.60
2018-06-11T09:31:02.809Z,27.75
2018-06-11T09:33:31.528Z,27.39
2018-06-11T09:35:59.968Z,27.63
2018-06-11T09:38:28.273Z,27.76
2018-06-11T09:40:56.485Z,27.83
2018-06-11T09:43:25.125Z,27.95
2018-06-11T09:45:53.448Z,27.99
2018-06-11T09:48:22.662Z,27.99
2018-06-11T09:50:51.107Z,27.98
2018-06-11T09:53:19.647Z,27.87
2018-06-11T09:55:48.075Z,27.79
2018-06-11T09:58:16.773Z,27.95
2018-06-11T10:00:45.294Z,27.88
2018-06-11T10:03:13.953Z,27.75
2018-06-11T10:05:42.368Z,27.82
2018-06-11T10:08:10.998Z,27.93
2018-06-11T10:10:39.490Z,27.96
2018-06-11T10:13:08.101Z,28.09
2018-06-11T10:15:36.515Z,28.19
2018-06-11T10:18:04.912Z,28.26
2018-06-11T10:20:33.474Z,28.25
2018-06-11T10:23:15.165Z,28.27
2018-06-11T10:25:43.719Z,28.29
2018-06-11T10:28:12.224Z,28.24
2018-06-11T10:30:41.313Z,28.37
2018-06-11T10:33:09.852Z,28.34
2018-06-11T10:35:38.304Z,28.47
2018-06-11T10:38:06.761Z,28.44
2018-06-11T10:40:35.254Z,28.52
2018-06-11T10:43:03.783Z,28.50
2018-06-11T10:45:32.345Z,28.53
2018-06-11T10:48:00.839Z,28.52
2018-06-11T10:50:30.117Z,28.56
2018-06-11T10:52:58.435Z,28.53
2018-06-11T10:55:28.801Z,28.35
2018-06-11T10:58:02.225Z,28.55
2018-06-11T11:00:33.353Z,28.54
2018-06-11T11:03:01.782Z,28.63
2018-06-11T11:05:30.044Z,28.40
2018-06-11T11:07:58.449Z,28.61
2018-06-11T11:10:26.996Z,28.61
2018-06-11T11:12:55.489Z,28.71
2018-06-11T11:15:23.753Z,28.77
2018-06-11T11:17:52.331Z,28.81
2018-06-11T11:20:20.928Z,28.77
2018-06-11T11:22:49.301Z,28.82
2018-06-11T11:25:17.561Z,28.60
2018-06-11T11:27:46.694Z,28.77
2018-06-11T11:30:15.144Z,28.78
2018-06-11T11:32:43.738Z,28.91
2018-06-11T11:35:12.201Z,28.98
2018-06-11T11:37:40.714Z,28.98
2018-06-11T11:40:09.294Z,28.96
2018-06-11T11:42:37.561Z,28.87
2018-06-11T11:45:06.071Z,28.99
2018-06-11T11:47:34.590Z,28.88
2018-06-11T11:50:02.949Z,28.93
2018-06-11T11:52:31.474Z,28.84
2018-06-11T11:54:59.943Z,28.95
2018-06-11T11:57:28.457Z,29.25
2018-06-11T11:59:56.946Z,29.14
2018-06-11T12:02:25.268Z,29.25
2018-06-11T12:04:53.790Z,29.40
2018-06-11T12:07:22.239Z,29.39
2018-06-11T12:09:50.664Z,29.23
2018-06-11T12:12:19.326Z,29.37
2018-06-11T12:14:47.603Z,29.42
2018-06-11T12:17:16.092Z,29.50
2018-06-11T12:19:44.578Z,29.29
2018-06-11T12:22:12.946Z,29.27
2018-06-11T12:24:41.654Z,29.14
2018-06-11T12:27:10.325Z,29.08
2018-06-11T12:29:38.774Z,29.21
2018-06-11T12:32:07.182Z,29.30
2018-06-11T12:34:35.770Z,29.36
2018-06-11T12:37:04.055Z,29.26
2018-06-11T12:39:32.667Z,29.42
2018-06-11T12:42:01.167Z,29.33
2018-06-11T12:44:29.710Z,29.58
2018-06-11T12:46:58.174Z,29.43
2018-06-11T12:49:26.656Z,29.67
2018-06-11T12:51:55.343Z,29.57
2018-06-11T12:54:23.921Z,29.54
2018-06-11T12:56:52.410Z,29.49
2018-06-11T12:59:20.892Z,29.50
2018-06-11T13:01:49.511Z,29.28
2018-06-11T13:04:18.030Z,29.36
2018-06-11T13:06:46.599Z,29.29
2018-06-11T13:09:15.273Z,29.44
2018-06-11T13:11:43.497Z,29.65
2018-06-11T13:14:11.957Z,29.84
2018-06-11T13:16:40.347Z,29.55
2018-06-11T13:19:08.666Z,29.63
2018-06-11T13:21:37.281Z,29.69
2018-06-11T13:24:05.728Z,29.77
2018-06-11T13:26:37.618Z,29.79
2018-06-11T13:29:06.253Z,29.78
2018-06-11T13:31:34.836Z,29.67
2018-06-11T13:34:03.284Z,29.72
2018-06-11T13:36:31.905Z,29.86
2018-06-11T13:39:00.186Z,30.03
2018-06-11T13:41:28.777Z,29.87
2018-06-11T13:43:57.351Z,29.84
2018-06-11T13:46:25.871Z,29.90
2018-06-11T13:48:54.206Z,29.91
2018-06-11T13:51:22.719Z,29.86
2018-06-11T13:53:51.373Z,29.94
2018-06-11T13:56:19.956Z,30.01
2018-06-11T13:58:48.539Z,29.91
2018-06-11T14:01:17.042Z,29.75
2018-06-11T14:03:45.578Z,29.57
2018-06-11T14:06:14.078Z,29.53
2018-06-11T14:08:42.359Z,29.70
2018-06-11T14:11:10.845Z,29.66
2018-06-11T14:13:39.230Z,30.00
2018-06-11T14:16:07.723Z,29.85
2018-06-11T14:18:36.010Z,30.02
2018-06-11T14:21:04.577Z,30.05
2018-06-11T14:24:00.958Z,30.12
2018-06-11T14:26:29.587Z,30.16
2018-06-11T14:28:57.994Z,29.96
2018-06-11T14:31:26.464Z,29.94
2018-06-11T14:33:54.841Z,30.21
2018-06-11T14:36:23.233Z,30.33
2018-06-11T14:38:51.699Z,30.15
2018-06-11T14:41:20.146Z,29.97
2018-06-11T14:43:48.797Z,30.02
2018-06-11T14:46:17.238Z,29.78
2018-06-11T14:48:45.786Z,29.90
2018-06-11T14:51:13.966Z,30.06
2018-06-11T14:53:42.390Z,30.08
2018-06-11T14:56:10.835Z,30.12
2018-06-11T14:58:39.372Z,30.08
2018-06-11T15:01:07.977Z,30.05
2018-06-11T15:03:36.312Z,29.88
2018-06-11T15:06:04.710Z,30.00
2018-06-11T15:08:33.391Z,29.70
2018-06-11T15:11:01.805Z,29.85
2018-06-11T15:13:30.281Z,29.79
2018-06-11T15:15:58.804Z,29.80
2018-06-11T15:18:27.085Z,29.77
2018-06-11T15:20:55.534Z,29.68
2018-06-11T15:23:23.864Z,29.57
2018-06-11T15:25:52.330Z,29.50
2018-06-11T15:28:20.703Z,29.65
2018-06-11T15:30:49.186Z,29.57
2018-06-11T15:33:17.574Z,29.75
2018-06-11T15:35:46.901Z,29.71
2018-06-11T15:38:15.165Z,29.83
2018-06-11T15:40:43.554Z,29.89
2018-06-11T15:43:11.561Z,29.91
2018-06-11T15:45:40.135Z,30.09
2018-06-11T15:48:08.519Z,29.83
2018-06-11T15:50:38.123Z,29.66
2018-06-11T15:53:06.522Z,29.61
2018-06-11T15:55:34.846Z,29.64
2018-06-11T15:58:05.416Z,29.65
2018-06-11T16:00:41.487Z,29.56
2018-06-11T16:03:13.329Z,29.51
2018-06-11T16:05:41.797Z,29.52
2018-06-11T16:08:10.260Z,29.73
2018-06-11T16:10:38.709Z,29.67
2018-06-11T16:13:07.102Z,29.62
2018-06-11T16:15:35.466Z,29.59
2018-06-11T16:18:04.005Z,29.54
2018-06-11T16:20:32.609Z,29.52
2018-06-11T16:23:01.014Z,29.44
2018-06-11T16:25:29.416Z,29.51
2018-06-11T16:27:57.816Z,29.71
2018-06-11T16:30:27.197Z,29.48
2018-06-11T16:32:55.657Z,29.50
2018-06-11T16:35:24.147Z,29.37
2018-06-11T16:37:52.475Z,29.47
2018-06-11T16:40:21.028Z,29.44
2018-06-11T16:42:49.299Z,29.29
2018-06-11T16:45:17.775Z,29.31
2018-06-11T16:47:46.258Z,29.15
2018-06-11T16:50:14.618Z,29.13
2018-06-11T16:52:43.114Z,29.16
2018-06-11T16:55:12.341Z,29.09
2018-06-11T16:57:40.916Z,29.00
2018-06-11T17:00:09.304Z,28.91
2018-06-11T17:02:37.662Z,28.89
2018-06-11T17:05:06.274Z,28.99
2018-06-11T17:07:34.534Z,28.87
2018-06-11T17:10:03.473Z,28.63
2018-06-11T17:12:31.996Z,28.49
2018-06-11T17:15:01.249Z,28.47
2018-06-11T17:17:29.765Z,28.50
2018-06-11T17:19:58.292Z,28.35
2018-06-11T17:22:26.945Z,28.35
2018-06-11T17:24:55.525Z,28.53
2018-06-11T17:27:23.949Z,28.73
2018-06-11T17:29:52.893Z,28.60
2018-06-11T17:32:21.300Z,28.36
2018-06-11T17:34:49.628Z,28.23
2018-06-11T17:37:18.042Z,28.12
2018-06-11T17:39:46.406Z,28.17
2018-06-11T17:42:14.729Z,28.10
2018-06-11T17:44:43.100Z,28.14
2018-06-11T17:47:11.258Z,28.35
2018-06-11T17:49:39.674Z,27.90
2018-06-11T17:52:08.063Z,27.89
2018-06-11T17:54:36.626Z,27.67
2018-06-11T17:57:05.050Z,27.62
2018-06-11T17:59:33.242Z,27.63
2018-06-11T18:02:01.622Z,27.66
2018-06-11T18:04:30.099Z,27.44
2018-06-11T18:06:58.409Z,27.33
2018-06-11T18:09:27.472Z,27.33
2018-06-11T18:11:59.735Z,27.12
2018-06-11T18:14:29.702Z,27.03
2018-06-11T18:16:58.276Z,26.72
2018-06-11T18:19:27.602Z,26.69
2018-06-11T18:21:58.371Z,26.93
2018-06-11T18:24:27.334Z,26.82
2018-06-11T18:26:55.327Z,26.92
2018-06-11T18:29:23.868Z,26.89
2018-06-11T18:31:52.337Z,26.71
2018-06-11T18:34:20.850Z,26.63
2018-06-11T18:36:49.365Z,26.67
2018-06-11T18:39:18.075Z,26.54
2018-06-11T18:41:46.538Z,26.51
2018-06-11T18:44:15.026Z,26.42
2018-06-11T18:46:43.561Z,26.28
2018-06-11T18:49:11.890Z,26.25
2018-06-11T18:51:40.674Z,26.33
2018-06-11T18:54:09.865Z,26.21
2018-06-11T18:56:38.280Z,26.22
2018-06-11T18:59:06.625Z,26.16
2018-06-11T19:01:35.054Z,26.20
2018-06-11T19:04:03.623Z,26.07
2018-06-11T19:06:31.966Z,25.94
2018-06-11T19:09:00.454Z,25.78
2018-06-11T19:11:29.238Z,25.77
2018-06-11T19:13:57.539Z,25.80
2018-06-11T19:16:26.813Z,25.88
2018-06-11T19:18:54.874Z,25.93
2018-06-11T19:21:23.167Z,25.87
2018-06-11T19:23:51.653Z,25.74
2018-06-11T19:26:20.020Z,25.85
2018-06-11T19:28:48.514Z,25.90
2018-06-11T19:31:17.013Z,25.79
2018-06-11T19:33:45.288Z,25.78
2018-06-11T19:36:13.667Z,25.78
2018-06-11T19:38:43.690Z,25.80
2018-06-11T19:41:11.757Z,25.79
2018-06-11T19:43:39.953Z,25.72
2018-06-11T19:46:08.586Z,25.78
2018-06-11T19:48:36.977Z,25.79
2018-06-11T19:51:05.413Z,25.75
2018-06-11T19:53:33.960Z,25.63
2018-06-11T19:56:02.295Z,25.75
2018-06-11T19:58:30.590Z,25.69
2018-06-11T20:00:58.968Z,25.49
2018-06-11T20:03:27.350Z,25.48
2018-06-11T20:05:55.934Z,25.42
2018-06-11T20:08:24.375Z,25.41
2018-06-11T20:10:52.699Z,25.26
2018-06-11T20:13:21.201Z,25.25
2018-06-11T20:15:49.723Z,25.18
2018-06-11T20:18:18.014Z,25.16
2018-06-11T20:20:46.281Z,25.21
2018-06-11T20:23:14.721Z,25.15
2018-06-11T20:25:43.096Z,25.14
2018-06-11T20:28:12.262Z,25.16
2018-06-11T20:30:40.548Z,25.17
2018-06-11T20:33:09.130Z,25.00
2018-06-11T20:35:37.614Z,24.91
2018-06-11T20:38:05.972Z,24.95
2018-06-11T20:40:34.572Z,24.98
2018-06-11T20:43:03.183Z,24.85
2018-06-11T20:45:31.570Z,24.84
2018-06-11T20:48:00.023Z,24.80
2018-06-11T20:50:28.534Z,24.90
2018-06-11T20:52:56.973Z,24.75
2018-06-11T20:55:26.230Z,24.68
2018-06-11T20:57:54.565Z,24.57
2018-06-11T21:00:22.926Z,24.60
2018-06-11T21:02:51.327Z,24.45
2018-06-11T21:05:19.630Z,24.44
2018-06-11T21:07:48.077Z,24.50
2018-06-11T21:10:20.225Z,24.50
2018-06-11T21:12:48.621Z,24.45
2018-06-11T21:15:17.101Z,24.32
2018-06-11T21:17:45.286Z,24.26
2018-06-11T21:20:13.793Z,24.26
2018-06-11T21:22:42.350Z,24.24
2018-06-11T21:25:10.815Z,24.28
2018-06-11T21:27:39.133Z,24.32
2018-06-11T21:30:07.670Z,24.17
2018-06-11T21:32:36.111Z,24.22
2018-06-11T21:35:04.583Z,24.24
2018-06-11T21:37:33.149Z,24.13
2018-06-11T21:40:01.616Z,23.97
2018-06-11T21:42:29.993Z,23.93
2018-06-11T21:44:58.477Z,23.99
2018-06-11T21:47:26.862Z,24.07
2018-06-11T21:49:55.460Z,24.15
2018-06-11T21:52:24.098Z,24.03
2018-06-11T21:54:52.398Z,23.97
2018-06-11T21:57:20.891Z,23.83
2018-06-11T21:59:49.286Z,23.77
2018-06-11T22:02:17.754Z,23.62
2018-06-11T22:04:46.213Z,23.51
2018-06-11T22:07:14.614Z,23.64
2018-06-11T22:09:43.230Z,23.79
2018-06-11T22:12:11.695Z,23.72
2018-06-11T22:14:40.074Z,23.65
2018-06-11T22:17:08.634Z,23.76
2018-06-11T22:19:37.009Z,23.78
2018-06-11T22:22:05.493Z,23.76
2018-06-11T22:24:33.976Z,23.79
2018-06-11T22:27:02.250Z,23.83
2018-06-11T22:29:30.657Z,23.80
2018-06-11T22:31:58.985Z,23.74
2018-06-11T22:34:27.422Z,23.72
2018-06-11T22:36:55.765Z,23.74
2018-06-11T22:39:24.171Z,23.55
2018-06-11T22:41:52.326Z,23.60
2018-06-11T22:44:20.865Z,23.67
2018-06-11T22:46:49.177Z,23.59
2018-06-11T22:49:17.430Z,23.49
2018-06-11T22:51:45.954Z,23.45
2018-06-11T22:54:14.512Z,23.50
2018-06-11T22:56:42.928Z,23.47
2018-06-11T22:59:11.530Z,23.46
2018-06-11T23:01:40.069Z,23.49
2018-06-11T23:04:08.448Z,23.42
2018-06-11T23:06:36.845Z,23.34
2018-06-11T23:09:06.897Z,23.30
2018-06-11T23:11:35.451Z,23.06
2018-06-11T23:14:04.026Z,22.98
2018-06-11T23:16:32.389Z,22.98
2018-06-11T23:19:00.906Z,22.94
2018-06-11T23:21:29.384Z,23.09
2018-06-11T23:23:58.054Z,23.11
2018-06-11T23:26:27.144Z,23.06
2018-06-11T23:28:55.721Z,23.00
2018-06-11T23:31:24.141Z,22.96
2018-06-11T23:33:52.604Z,22.95
2018-06-11T23:36:20.970Z,23.01
2018-06-11T23:38:49.343Z,22.85
2018-06-11T23:41:17.952Z,23.08
2018-06-11T23:43:46.304Z,23.07
2018-06-11T23:46:14.845Z,23.07
2018-06-11T23:48:43.165Z,22.94
2018-06-11T23:51:11.553Z,22.71
2018-06-11T23:53:40.134Z,22.39
2018-06-11T23:56:08.506Z,22.45
2018-06-11T23:58:36.890Z,22.19
